createdAt,value
2022-12-19T00:01:59.793Z,44.10
2022-12-19T00:04:27.956Z,41.80
2022-12-19T00:06:58.258Z,40.22
2022-12-19T00:09:26.453Z,39.50
2022-12-19T00:11:54.636Z,40.88
2022-12-19T00:14:22.732Z,39.78
2022-12-19T00:16:52.277Z,37.75
2022-12-19T00:19:21.284Z,40.42
2022-12-19T00:21:49.492Z,39.50
2022-12-19T00:24:20.900Z,39.20
2022-12-19T00:26:49.747Z,38.13
2022-12-19T00:29:17.961Z,35.85
2022-12-19T00:31:46.124Z,35.78
2022-12-19T00:34:17.355Z,37.30
2022-12-19T00:36:45.527Z,36.80
2022-12-19T00:39:13.643Z,38.72
2022-12-19T00:41:42.515Z,36.28
2022-12-19T00:44:12.942Z,35.13
2022-12-19T00:46:42.157Z,34.40
2022-12-19T00:49:10.333Z,35.67
2022-12-19T00:51:39.931Z,35.38
2022-12-19T00:54:11.283Z,33.38
2022-12-19T00:56:40.069Z,33.13
2022-12-19T00:59:08.915Z,34.92
2022-12-19T01:01:38.447Z,35.00
2022-12-19T01:07:01.646Z,33.20
2022-12-19T01:09:33.156Z,32.75
2022-12-19T01:12:18.493Z,32.22
2022-12-19T01:14:46.775Z,30.88
2022-12-19T01:17:14.944Z,30.60
2022-12-19T01:19:44.526Z,31.30
2022-12-19T01:22:14.489Z,32.60
2022-12-19T01:24:42.810Z,29.55
2022-12-19T01:27:10.975Z,33.10
2022-12-19T01:29:51.841Z,28.88
2022-12-19T01:32:21.542Z,30.17
2022-12-19T01:34:49.773Z,32.33
2022-12-19T01:37:22.384Z,28.92
2022-12-19T01:39:50.608Z,30.73
2022-12-19T01:42:23.466Z,30.02
2022-12-19T01:45:33.453Z,29.10
2022-12-19T01:48:06.398Z,29.70
2022-12-19T01:50:37.893Z,27.83
2022-12-19T01:53:11.473Z,28.75
2022-12-19T01:55:40.283Z,27.25
2022-12-19T01:58:08.547Z,26.92
2022-12-19T02:00:36.762Z,27.80
2022-12-19T02:03:07.789Z,27.77
2022-12-19T02:05:38.809Z,27.20
2022-12-19T02:08:07.080Z,26.35
2022-12-19T02:10:37.096Z,25.67
2022-12-19T02:13:06.351Z,25.92
2022-12-19T02:15:36.381Z,26.50
2022-12-19T02:18:07.970Z,25.25
2022-12-19T02:21:05.435Z,26.80
2022-12-19T02:23:55.660Z,26.40
2022-12-19T02:26:37.935Z,23.70
2022-12-19T02:29:20.252Z,25.00
2022-12-19T02:31:50.267Z,23.85
2022-12-19T02:34:22.043Z,25.23
2022-12-19T02:37:01.749Z,23.38
2022-12-19T02:39:33.219Z,23.67
2022-12-19T02:42:03.179Z,23.90
2022-12-19T02:44:35.062Z,25.13
2022-12-19T02:47:05.642Z,23.98
2022-12-19T02:49:36.019Z,22.92
2022-12-19T02:52:11.492Z,23.33
2022-12-19T02:54:45.164Z,23.15
2022-12-19T02:57:19.015Z,23.77
2022-12-19T02:59:53.651Z,23.63
2022-12-19T03:02:29.241Z,22.80
2022-12-19T03:04:59.648Z,22.17
2022-12-19T03:07:31.078Z,21.92
2022-12-19T03:10:03.386Z,21.00
2022-12-19T03:12:33.345Z,22.63
2022-12-19T03:15:01.576Z,21.23
2022-12-19T03:17:31.427Z,20.65
2022-12-19T03:19:59.920Z,21.30
2022-12-19T03:22:28.107Z,21.05
2022-12-19T03:24:56.242Z,20.35
2022-12-19T03:27:27.037Z,22.73
2022-12-19T03:29:56.328Z,20.33
2022-12-19T03:32:24.474Z,23.67
2022-12-19T03:34:55.201Z,22.10
2022-12-19T03:37:25.021Z,20.92
2022-12-19T03:39:55.657Z,21.33
2022-12-19T03:42:44.395Z,19.77
2022-12-19T03:45:12.862Z,20.55
2022-12-19T03:47:43.030Z,26.75
2022-12-19T03:50:12.695Z,18.38
2022-12-19T03:52:43.070Z,18.73
2022-12-19T03:55:13.725Z,19.95
2022-12-19T03:57:43.052Z,18.05
2022-12-19T04:00:12.866Z,18.30
2022-12-19T04:02:42.597Z,17.33
2022-12-19T04:05:13.319Z,18.33
2022-12-19T04:07:41.531Z,19.00
2022-12-19T04:10:11.963Z,18.08
2022-12-19T04:12:41.793Z,19.38
2022-12-19T04:15:18.320Z,18.42
2022-12-19T04:17:48.061Z,17.65
2022-12-19T04:20:18.046Z,18.00
2022-12-19T04:22:50.238Z,18.55
2022-12-19T04:25:19.928Z,17.85
2022-12-19T04:27:50.245Z,17.92
2022-12-19T04:30:18.866Z,18.83
2022-12-19T04:32:47.146Z,15.95
2022-12-19T04:35:15.535Z,18.13
2022-12-19T04:37:45.151Z,16.25
2022-12-19T04:40:14.396Z,15.57
2022-12-19T04:42:42.656Z,16.65
2022-12-19T04:45:11.530Z,16.95
2022-12-19T04:47:39.851Z,16.42
2022-12-19T04:50:08.415Z,16.70
2022-12-19T04:52:36.644Z,16.02
2022-12-19T04:55:07.118Z,16.88
2022-12-19T04:57:35.390Z,16.38
2022-12-19T05:00:05.110Z,16.00
2022-12-19T05:02:33.468Z,16.05
2022-12-19T05:05:01.741Z,17.20
2022-12-19T05:07:29.948Z,15.98
2022-12-19T05:10:00.865Z,14.73
2022-12-19T05:12:31.190Z,15.30
2022-12-19T05:14:59.363Z,16.60
2022-12-19T05:17:27.470Z,17.90
2022-12-19T05:19:55.663Z,15.00
2022-12-19T05:22:23.796Z,17.95
2022-12-19T05:24:51.990Z,15.75
2022-12-19T05:27:20.170Z,15.68
2022-12-19T05:29:49.716Z,14.45
2022-12-19T05:32:17.967Z,16.38
2022-12-19T05:34:46.126Z,15.07
2022-12-19T05:37:14.256Z,16.02
2022-12-19T05:39:42.353Z,15.20
2022-12-19T05:42:12.486Z,14.50
2022-12-19T05:44:40.946Z,15.10
2022-12-19T05:47:10.451Z,15.68
2022-12-19T05:49:38.616Z,15.23
2022-12-19T05:52:06.903Z,14.80
2022-12-19T05:54:35.136Z,15.77
2022-12-19T05:57:03.361Z,15.40
2022-12-19T05:59:31.537Z,13.70
2022-12-19T06:01:59.719Z,14.25
2022-12-19T06:04:30.562Z,13.52
2022-12-19T06:06:58.708Z,14.73
2022-12-19T06:09:27.165Z,14.25
2022-12-19T06:11:55.316Z,14.98
2022-12-19T06:14:24.043Z,14.25
2022-12-19T06:16:53.094Z,14.20
2022-12-19T06:19:21.675Z,13.95
2022-12-19T06:21:51.184Z,14.13
2022-12-19T06:24:19.415Z,13.27
2022-12-19T06:26:47.521Z,14.38
2022-12-19T06:29:16.224Z,14.88
2022-12-19T06:31:44.649Z,13.05
2022-12-19T06:34:27.118Z,14.45
2022-12-19T06:37:07.821Z,13.45
2022-12-19T06:39:38.809Z,13.10
2022-12-19T06:42:24.430Z,13.68
2022-12-19T06:44:54.093Z,13.48
2022-12-19T06:47:22.947Z,13.77
2022-12-19T06:49:51.758Z,13.82
2022-12-19T06:52:22.457Z,13.35
2022-12-19T06:54:50.717Z,16.15
2022-12-19T06:57:18.844Z,17.73
2022-12-19T06:59:47.059Z,19.05
2022-12-19T07:02:23.422Z,19.48
2022-12-19T07:04:52.730Z,24.92
2022-12-19T07:07:22.338Z,21.50
2022-12-19T07:09:50.540Z,27.88
2022-12-19T07:12:18.643Z,26.38
2022-12-19T07:14:51.711Z,33.53
2022-12-19T07:17:21.542Z,31.90
2022-12-19T07:19:52.765Z,32.83
2022-12-19T07:22:22.298Z,29.83
2022-12-19T07:24:50.518Z,29.67
2022-12-19T07:27:18.665Z,35.03
2022-12-19T07:29:46.819Z,39.30
2022-12-19T07:32:14.955Z,39.45
2022-12-19T07:34:43.132Z,48.55
2022-12-19T07:37:11.222Z,39.15
2022-12-19T07:39:40.800Z,42.35
2022-12-19T07:42:08.905Z,46.35
2022-12-19T07:44:40.112Z,50.58
2022-12-19T07:47:11.055Z,70.93
2022-12-19T07:49:39.268Z,70.28
2022-12-19T07:52:08.510Z,82.68
2022-12-19T07:54:37.385Z,75.80
2022-12-19T07:57:07.074Z,75.20
2022-12-19T07:59:39.015Z,79.80
2022-12-19T08:02:08.071Z,70.80
2022-12-19T08:04:36.359Z,71.88
2022-12-19T08:07:04.598Z,83.57
2022-12-19T08:09:32.897Z,65.30
2022-12-19T08:12:01.062Z,67.70
2022-12-19T08:14:30.547Z,64.82
2022-12-19T08:19:46.831Z,77.72
2022-12-19T08:22:15.040Z,66.22
2022-12-19T08:24:43.233Z,70.85
2022-12-19T08:27:11.894Z,67.20
2022-12-19T08:29:41.523Z,69.63
2022-12-19T08:32:09.639Z,63.10
2022-12-19T08:34:37.839Z,67.68
2022-12-19T08:37:06.097Z,63.15
2022-12-19T08:39:34.275Z,64.88
2022-12-19T08:42:02.405Z,68.22
2022-12-19T08:44:30.733Z,69.60
2022-12-19T08:47:00.219Z,64.25
2022-12-19T08:49:28.426Z,62.67
2022-12-19T08:51:56.563Z,64.88
2022-12-19T08:54:24.813Z,67.65
2022-12-19T08:56:53.032Z,64.68
2022-12-19T08:59:30.609Z,67.70
2022-12-19T09:02:01.311Z,64.85
2022-12-19T09:06:00.543Z,67.97
2022-12-19T09:07:17.915Z,66.55
2022-12-19T09:09:46.070Z,68.10
2022-12-19T09:12:14.362Z,65.10
2022-12-19T09:14:44.218Z,67.53
2022-12-19T09:17:13.898Z,81.50
2022-12-19T09:19:47.112Z,76.25
2022-12-19T09:22:16.959Z,83.10
2022-12-19T09:24:45.336Z,79.47
2022-12-19T09:27:14.152Z,84.07
2022-12-19T09:29:43.532Z,88.18
2022-12-19T09:32:13.260Z,85.85
2022-12-19T09:34:41.441Z,114.80
2022-12-19T09:37:10.420Z,105.75
2022-12-19T09:39:45.304Z,113.53
2022-12-19T09:42:19.970Z,118.47
2022-12-19T09:45:02.214Z,123.60
2022-12-19T09:47:32.309Z,114.72
2022-12-19T09:50:00.816Z,111.88
2022-12-19T09:52:33.086Z,114.15
2022-12-19T09:55:04.320Z,115.90
2022-12-19T09:57:37.502Z,111.88
2022-12-19T10:00:07.225Z,109.03
2022-12-19T10:02:40.444Z,115.50
2022-12-19T10:05:40.585Z,129.63
2022-12-19T10:08:09.474Z,146.90
2022-12-19T10:12:38.371Z,138.52
2022-12-19T10:13:38.078Z,136.13
2022-12-19T10:16:11.811Z,132.23
2022-12-19T10:18:52.667Z,132.00
2022-12-19T10:22:07.482Z,128.13
2022-12-19T10:25:08.086Z,130.40
2022-12-19T10:27:58.703Z,121.07
2022-12-19T10:30:29.131Z,120.20
2022-12-19T10:33:04.222Z,115.10
2022-12-19T10:35:35.271Z,113.70
2022-12-19T10:38:13.545Z,112.30
2022-12-19T10:40:44.306Z,103.07
2022-12-19T10:43:20.473Z,106.88
2022-12-19T10:46:00.469Z,103.32
2022-12-19T10:48:30.769Z,101.30
2022-12-19T10:51:06.190Z,117.03
2022-12-19T10:53:34.959Z,111.15
2022-12-19T10:56:03.725Z,103.07
2022-12-19T10:58:34.581Z,114.05
2022-12-19T11:01:14.003Z,121.38
2022-12-19T11:03:43.601Z,118.07
2022-12-19T11:06:47.500Z,136.85
2022-12-19T11:09:27.668Z,136.82
2022-12-19T11:16:25.975Z,145.88
2022-12-19T11:18:51.955Z,143.98
2022-12-19T11:23:02.393Z,146.15
2022-12-19T11:29:32.624Z,146.65
2022-12-19T11:29:46.778Z,137.50
2022-12-19T11:30:38.059Z,142.32
2022-12-19T11:30:47.446Z,132.60
2022-12-19T11:32:31.547Z,133.13
2022-12-19T11:34:35.624Z,142.73
2022-12-19T11:37:08.236Z,136.80
2022-12-19T11:39:41.606Z,134.25
2022-12-19T11:42:12.280Z,143.68
2022-12-19T11:44:41.740Z,137.60
2022-12-19T11:47:14.421Z,136.18
2022-12-19T11:49:43.787Z,140.45
2022-12-19T11:52:54.066Z,135.18
2022-12-19T11:55:07.408Z,145.60
2022-12-19T11:57:35.562Z,150.85
2022-12-19T12:00:05.703Z,146.05
2022-12-19T12:02:44.018Z,137.27
2022-12-19T12:05:31.112Z,134.13
2022-12-19T12:10:14.485Z,129.10
2022-12-19T12:14:14.902Z,129.95
2022-12-19T12:22:25.408Z,128.30
2022-12-19T12:29:39.833Z,117.93
2022-12-19T12:31:06.541Z,117.95
2022-12-19T12:31:20.142Z,125.10
2022-12-19T12:31:40.920Z,123.53
2022-12-19T12:31:45.497Z,117.93
2022-12-19T12:35:38.193Z,109.90
2022-12-19T12:40:49.253Z,101.78
2022-12-19T12:43:22.880Z,99.25
2022-12-19T12:45:52.531Z,95.65
2022-12-19T12:48:23.660Z,100.63
2022-12-19T12:50:55.249Z,96.45
2022-12-19T12:53:26.792Z,91.00
2022-12-19T12:55:56.409Z,94.93
2022-12-19T12:58:45.511Z,100.00
2022-12-19T13:01:17.421Z,108.57
2022-12-19T13:03:52.768Z,115.78
2022-12-19T13:06:25.803Z,106.03
2022-12-19T13:08:54.027Z,104.57
2022-12-19T13:11:54.917Z,108.50
2022-12-19T13:14:48.416Z,110.22
2022-12-19T13:17:25.363Z,106.07
2022-12-19T13:19:55.408Z,109.35
2022-12-19T13:22:38.047Z,101.10
2022-12-19T13:25:40.230Z,103.10
2022-12-19T13:28:16.284Z,102.38
2022-12-19T13:31:21.456Z,98.30
2022-12-19T13:34:16.509Z,108.38
2022-12-19T13:39:56.405Z,103.15
2022-12-19T13:39:59.745Z,103.63
2022-12-19T13:42:45.627Z,102.85
2022-12-19T13:45:15.344Z,94.38
2022-12-19T13:47:45.100Z,99.28
2022-12-19T13:50:20.831Z,91.60
2022-12-19T13:52:51.877Z,92.07
2022-12-19T13:55:20.009Z,85.75
2022-12-19T13:57:48.436Z,82.50
2022-12-19T14:00:19.240Z,81.85
2022-12-19T14:02:49.892Z,76.78
2022-12-19T14:05:53.323Z,75.78
2022-12-19T14:08:17.763Z,78.43
2022-12-19T14:11:42.874Z,76.28
2022-12-19T14:14:03.393Z,68.15
2022-12-19T14:16:39.824Z,65.85
2022-12-19T14:19:23.152Z,67.95
2022-12-19T14:22:09.023Z,65.10
2022-12-19T14:24:41.276Z,67.55
2022-12-19T14:28:20.039Z,66.80
2022-12-19T14:30:30.316Z,63.70
2022-12-19T14:33:47.104Z,59.60
2022-12-19T14:36:10.133Z,61.58
2022-12-19T14:39:19.525Z,62.08
2022-12-19T14:41:42.627Z,62.00
2022-12-19T14:53:33.958Z,59.80
2022-12-19T14:54:06.892Z,60.55
2022-12-19T14:54:10.440Z,62.13
2022-12-19T14:54:28.081Z,73.88
2022-12-19T14:56:17.521Z,77.95
2022-12-19T14:58:53.612Z,76.80
2022-12-19T15:01:24.438Z,74.82
2022-12-19T15:04:49.091Z,76.00
2022-12-19T15:07:09.860Z,73.50
2022-12-19T15:11:08.384Z,74.50
2022-12-19T15:14:48.492Z,72.60
2022-12-19T15:15:41.089Z,73.80
2022-12-19T15:18:30.329Z,71.47
2022-12-19T15:20:59.363Z,68.20
2022-12-19T15:23:27.576Z,71.75
2022-12-19T15:26:11.491Z,70.05
2022-12-19T15:28:42.077Z,68.07
2022-12-19T15:31:19.726Z,71.93
2022-12-19T15:34:23.399Z,71.00
2022-12-19T15:36:36.076Z,70.68
2022-12-19T15:39:04.533Z,74.03
2022-12-19T15:41:32.653Z,69.70
2022-12-19T15:44:04.262Z,75.38
2022-12-19T15:46:33.276Z,72.00
2022-12-19T15:49:01.495Z,70.40
2022-12-19T15:51:29.612Z,70.18
2022-12-19T15:54:22.202Z,76.95
2022-12-19T15:56:48.540Z,86.00
2022-12-19T15:59:24.246Z,67.75
2022-12-19T16:01:52.762Z,62.00
2022-12-19T16:04:21.301Z,57.05
2022-12-19T16:06:49.484Z,58.60
2022-12-19T16:09:20.892Z,56.17
2022-12-19T16:11:49.297Z,59.22
2022-12-19T16:14:17.419Z,62.40
2022-12-19T16:16:47.963Z,66.72
2022-12-19T16:19:24.338Z,73.97
2022-12-19T16:21:53.179Z,73.18
2022-12-19T16:24:21.518Z,71.97
2022-12-19T16:26:52.471Z,68.32
2022-12-19T16:29:21.986Z,73.60
2022-12-19T16:31:51.723Z,69.93
2022-12-19T16:34:21.612Z,69.32
2022-12-19T16:36:50.165Z,69.97
2022-12-19T16:39:18.344Z,71.18
2022-12-19T16:41:47.124Z,75.10
2022-12-19T16:44:19.470Z,79.88
2022-12-19T16:46:51.044Z,79.20
2022-12-19T16:49:23.036Z,74.93
2022-12-19T16:51:51.376Z,79.88
2022-12-19T16:54:20.119Z,82.53
2022-12-19T16:56:49.306Z,77.10
2022-12-19T16:59:18.924Z,78.45
2022-12-19T17:01:47.270Z,80.40
2022-12-19T17:04:15.800Z,81.07
2022-12-19T17:06:45.327Z,86.25
2022-12-19T17:09:15.759Z,94.30
2022-12-19T17:11:46.486Z,98.35
2022-12-19T17:14:17.310Z,97.22
2022-12-19T17:16:45.589Z,88.80
2022-12-19T17:19:19.196Z,94.05
2022-12-19T17:21:48.827Z,93.78
2022-12-19T17:24:16.996Z,84.45
2022-12-19T17:26:45.213Z,82.20
2022-12-19T17:29:13.364Z,83.35
2022-12-19T17:31:41.748Z,82.05
2022-12-19T17:34:14.547Z,81.47
2022-12-19T17:36:42.774Z,76.72
2022-12-19T17:39:19.964Z,81.80
2022-12-19T17:41:48.458Z,75.82
2022-12-19T17:44:16.596Z,73.30
2022-12-19T17:46:44.991Z,76.63
2022-12-19T17:49:16.912Z,69.78
2022-12-19T17:51:47.130Z,71.40
2022-12-19T17:54:16.744Z,79.07
2022-12-19T17:56:44.961Z,71.85
2022-12-19T17:59:13.458Z,71.03
2022-12-19T18:01:42.426Z,67.47
2022-12-19T18:04:13.388Z,69.32
2022-12-19T18:06:42.091Z,71.10
2022-12-19T18:09:20.042Z,66.10
2022-12-19T18:11:48.277Z,65.55
2022-12-19T18:14:16.644Z,62.13
2022-12-19T18:16:45.024Z,62.03
2022-12-19T18:19:17.273Z,63.38
2022-12-19T18:21:45.476Z,60.72
2022-12-19T18:24:14.828Z,182.95
2022-12-19T18:26:44.443Z,164.77
2022-12-19T18:29:12.696Z,141.52
2022-12-19T18:31:46.574Z,134.30
2022-12-19T18:34:19.428Z,121.00
2022-12-19T18:36:47.631Z,116.38
2022-12-19T18:39:22.996Z,110.85
2022-12-19T18:41:53.957Z,110.43
2022-12-19T18:44:23.224Z,114.38
2022-12-19T18:46:51.606Z,106.18
2022-12-19T18:49:19.904Z,110.35
2022-12-19T18:51:48.131Z,116.57
2022-12-19T18:54:17.431Z,113.40
2022-12-19T18:56:46.126Z,112.50
2022-12-19T18:59:15.670Z,111.22
2022-12-19T19:01:44.813Z,109.50
2022-12-19T19:04:13.324Z,106.05
2022-12-19T19:06:50.064Z,107.90
2022-12-19T19:09:19.797Z,104.90
2022-12-19T19:12:09.794Z,109.07
2022-12-19T19:14:39.391Z,98.43
2022-12-19T19:17:07.603Z,103.82
2022-12-19T19:19:35.863Z,90.72
2022-12-19T19:22:03.992Z,107.28
2022-12-19T19:24:32.163Z,111.72
2022-12-19T19:27:00.275Z,110.40
2022-12-19T19:29:28.486Z,114.75
2022-12-19T19:31:58.069Z,109.90
2022-12-19T19:34:28.015Z,103.30
2022-12-19T19:36:56.923Z,112.45
2022-12-19T19:39:25.153Z,106.07
2022-12-19T19:41:53.712Z,103.60
2022-12-19T19:44:22.005Z,106.43
2022-12-19T19:46:50.270Z,106.15
2022-12-19T19:49:21.225Z,99.43
2022-12-19T19:51:49.426Z,101.88
2022-12-19T19:54:17.686Z,119.25
2022-12-19T19:56:45.842Z,112.20
2022-12-19T19:59:13.979Z,111.15
2022-12-19T20:01:42.292Z,110.90
2022-12-19T20:04:10.551Z,123.70
2022-12-19T20:06:40.172Z,119.40
2022-12-19T20:09:08.622Z,120.82
2022-12-19T20:11:36.937Z,123.50
2022-12-19T20:14:05.061Z,128.95
2022-12-19T20:16:33.892Z,126.95
2022-12-19T20:19:02.218Z,130.88
2022-12-19T20:21:30.819Z,129.80
2022-12-19T20:24:00.389Z,126.40
2022-12-19T20:26:28.619Z,124.28
2022-12-19T20:28:56.790Z,123.10
2022-12-19T20:31:25.130Z,127.68
2022-12-19T20:33:54.842Z,117.80
2022-12-19T20:36:23.279Z,124.53
2022-12-19T20:38:51.660Z,130.18
2022-12-19T20:41:21.620Z,127.07
2022-12-19T20:43:49.862Z,119.63
2022-12-19T20:46:19.825Z,120.05
2022-12-19T20:48:48.104Z,115.90
2022-12-19T20:51:16.430Z,122.97
2022-12-19T20:53:44.958Z,121.38
2022-12-19T20:56:15.454Z,117.32
2022-12-19T20:58:45.069Z,116.32
2022-12-19T21:01:14.331Z,115.95
2022-12-19T21:03:42.954Z,113.32
2022-12-19T21:06:11.937Z,120.25
2022-12-19T21:08:40.155Z,113.93
2022-12-19T21:11:08.657Z,116.28
2022-12-19T21:13:38.035Z,111.18
2022-12-19T21:16:08.986Z,112.45
2022-12-19T21:18:37.329Z,108.22
2022-12-19T21:21:05.685Z,111.65
2022-12-19T21:23:34.051Z,110.35
2022-12-19T21:26:02.694Z,107.10
2022-12-19T21:28:30.949Z,108.88
2022-12-19T21:30:59.692Z,103.72
2022-12-19T21:33:29.306Z,108.43
2022-12-19T21:35:57.823Z,104.25
2022-12-19T21:38:26.034Z,106.75
2022-12-19T21:40:54.153Z,112.70
2022-12-19T21:43:22.369Z,106.75
2022-12-19T21:45:50.518Z,107.07
2022-12-19T21:48:18.758Z,105.10
2022-12-19T21:50:50.150Z,107.88
2022-12-19T21:53:18.469Z,109.13
2022-12-19T21:55:46.640Z,102.63
2022-12-19T21:58:14.809Z,102.57
2022-12-19T22:00:43.112Z,101.88
2022-12-19T22:03:14.551Z,104.65
2022-12-19T22:05:42.911Z,102.80
2022-12-19T22:08:12.477Z,107.63
2022-12-19T22:10:40.821Z,102.15
2022-12-19T22:13:08.914Z,101.68
2022-12-19T22:15:37.546Z,100.30
2022-12-19T22:18:05.733Z,101.35
2022-12-19T22:20:33.929Z,97.22
2022-12-19T22:23:02.031Z,96.63
2022-12-19T22:25:31.580Z,104.65
2022-12-19T22:27:59.759Z,97.40
2022-12-19T22:30:27.899Z,97.60
2022-12-19T22:32:56.090Z,94.70
2022-12-19T22:35:24.242Z,100.82
2022-12-19T22:37:52.485Z,94.28
2022-12-19T22:40:20.696Z,93.05
2022-12-19T22:42:50.272Z,96.30
2022-12-19T22:45:18.487Z,93.50
2022-12-19T22:47:46.690Z,96.35
2022-12-19T22:50:14.873Z,95.00
2022-12-19T22:52:43.043Z,93.38
2022-12-19T22:55:11.491Z,86.40
2022-12-19T22:57:39.727Z,89.55
2022-12-19T23:00:11.976Z,89.97
2022-12-19T23:02:40.379Z,89.00
2022-12-19T23:05:09.039Z,87.43
2022-12-19T23:07:37.206Z,86.43
2022-12-19T23:10:06.043Z,83.32
2022-12-19T23:12:34.228Z,82.45
2022-12-19T23:15:02.326Z,82.95
2022-12-19T23:17:31.916Z,85.68
2022-12-19T23:20:00.065Z,80.15
2022-12-19T23:22:28.260Z,79.55
2022-12-19T23:24:56.460Z,79.78
2022-12-19T23:27:24.569Z,79.78
2022-12-19T23:29:52.721Z,76.75
2022-12-19T23:32:20.937Z,75.07
2022-12-19T23:34:50.629Z,76.75
2022-12-19T23:37:18.814Z,76.25
2022-12-19T23:39:46.915Z,74.15
2022-12-19T23:42:15.048Z,73.78
2022-12-19T23:44:43.401Z,72.53
2022-12-19T23:47:11.522Z,71.47
2022-12-19T23:49:39.732Z,67.05
2022-12-19T23:52:09.255Z,73.63
2022-12-19T23:54:37.589Z,70.15
2022-12-19T23:57:05.786Z,69.07
2022-12-19T23:59:33.912Z,69.68
